Time;durP1;ratioP1;P1;durP2;ratioP2;P2;SDS_P1;SDS_P2;PMS_P1;PMS_P2;Temp;Humidity;BMP_temperature;BMP_pressure;BME280_temperature;BME280_humidity;BME280_pressure;Samples;Min_cycle;Max_cycle;Signal;HPM_P1;HPM_P2
2022/07/04 00:00:26;;;;;;;1.57;1.40;;;22.00;63.70;;;;;;20995481;28;20690;-69
2022/07/04 00:10:28;;;;;;;3.73;1.83;;;22.00;63.60;;;;;;20994878;28;20212;-70
2022/07/04 00:20:30;;;;;;;1.90;1.53;;;22.00;63.50;;;;;;20994120;28;20214;-68
2022/07/04 00:30:32;;;;;;;1.87;1.60;;;21.80;63.70;;;;;;20990887;28;20214;-67
2022/07/04 00:40:34;;;;;;;4.07;1.60;;;21.80;64.20;;;;;;20993636;28;20245;-67
2022/07/04 00:50:35;;;;;;;2.80;1.63;;;21.60;64.90;;;;;;20997277;28;20215;-69
2022/07/04 01:00:37;;;;;;;4.50;1.80;;;21.40;65.60;;;;;;21008420;28;20211;-68
2022/07/04 01:10:39;;;;;;;2.53;1.90;;;21.60;65.80;;;;;;21007203;28;20260;-66
2022/07/04 01:20:40;;;;;;;2.57;1.90;;;21.60;65.80;;;;;;21007159;28;20207;-67
2022/07/04 01:30:42;;;;;;;4.43;1.93;;;21.60;66.00;;;;;;21006154;28;20207;-67
2022/07/04 01:40:44;;;;;;;7.53;1.90;;;21.60;66.00;;;;;;21005501;28;20242;-67
2022/07/04 01:50:45;;;;;;;3.97;1.90;;;21.40;67.00;;;;;;21005279;28;20211;-65
2022/07/04 02:11:07;;;;;;;4.47;2.63;;;21.20;68.40;;;;;;21002935;28;20681;-70
2022/07/04 02:21:09;;;;;;;3.03;2.00;;;21.00;69.10;;;;;;21001980;28;20321;-69
2022/07/04 02:31:11;;;;;;;4.27;2.13;;;20.90;69.70;;;;;;20998837;28;20209;-67
2022/07/04 02:41:13;;;;;;;5.10;2.30;;;20.80;70.00;;;;;;21000568;28;20243;-69
2022/07/04 02:51:15;;;;;;;7.63;3.17;;;20.70;70.50;;;;;;20999857;28;20214;-69
2022/07/04 03:01:18;;;;;;;3.30;2.83;;;20.60;71.30;;;;;;20999592;28;20227;-71
2022/07/04 03:11:20;;;;;;;2.77;2.30;;;20.60;71.50;;;;;;21049766;28;20209;-70
2022/07/04 03:21:21;;;;;;;2.83;2.13;;;20.50;71.80;;;;;;21044137;28;20711;-68
2022/07/04 03:31:24;;;;;;;4.17;2.43;;;20.40;72.80;;;;;;20998639;28;20210;-72
2022/07/04 03:41:25;;;;;;;8.57;2.63;;;20.10;73.50;;;;;;20995929;28;20871;-67
2022/07/04 03:51:28;;;;;;;5.33;2.23;;;20.10;73.90;;;;;;20995979;28;20219;-71
2022/07/04 04:01:30;;;;;;;4.97;2.70;;;20.00;74.40;;;;;;20994885;28;20600;-67
2022/07/04 04:11:32;;;;;;;6.27;2.30;;;20.00;75.10;;;;;;20994676;28;20225;-71
2022/07/04 04:21:34;;;;;;;5.77;3.17;;;20.10;75.50;;;;;;20993498;28;20244;-70
2022/07/04 04:31:35;;;;;;;5.90;3.13;;;20.10;76.20;;;;;;21005588;28;20642;-72
2022/07/04 04:41:37;;;;;;;8.70;3.73;;;20.20;76.40;;;;;;21007926;28;20246;-72
2022/07/04 04:51:40;;;;;;;8.23;3.10;;;20.30;76.60;;;;;;21010114;28;20214;-69
2022/07/04 05:01:41;;;;;;;4.20;2.50;;;20.50;76.80;;;;;;21040763;28;20321;-70
2022/07/04 05:11:43;;;;;;;5.00;2.70;;;20.60;76.90;;;;;;21089858;28;20198;-70
2022/07/04 05:21:45;;;;;;;6.87;3.27;;;20.70;76.20;;;;;;21090115;28;20227;-70
2022/07/04 05:31:47;;;;;;;6.70;2.63;;;20.60;75.90;;;;;;21088772;28;20210;-70
2022/07/04 05:41:48;;;;;;;6.77;3.53;;;20.70;75.50;;;;;;21086814;28;20693;-68
2022/07/04 05:51:50;;;;;;;7.77;3.10;;;20.70;75.20;;;;;;21087451;28;20613;-70
2022/07/04 06:01:52;;;;;;;2.83;1.97;;;20.80;75.20;;;;;;21069021;28;20297;-68
2022/07/04 06:11:54;;;;;;;2.63;2.00;;;21.00;75.10;;;;;;21085568;28;20259;-68
2022/07/04 06:21:55;;;;;;;5.57;2.20;;;21.20;74.50;;;;;;21059521;28;20998;-69
2022/07/04 06:31:57;;;;;;;7.97;2.60;;;21.30;74.40;;;;;;20997842;28;20229;-70
2022/07/04 06:41:59;;;;;;;3.03;1.93;;;21.50;74.40;;;;;;20998752;28;20252;-68
2022/07/04 06:52:01;;;;;;;11.03;2.53;;;21.70;74.30;;;;;;20997669;28;20205;-70
2022/07/04 07:02:03;;;;;;;6.23;2.30;;;21.80;74.30;;;;;;20996544;28;20239;-66
2022/07/04 07:12:05;;;;;;;4.60;1.83;;;22.10;73.70;;;;;;20996126;28;20203;-69
2022/07/04 07:22:07;;;;;;;6.60;4.70;;;22.40;73.10;;;;;;20995080;28;20753;-68
2022/07/04 07:32:08;;;;;;;4.70;2.80;;;22.50;72.20;;;;;;20994214;28;20264;-67
2022/07/04 07:42:10;;;;;;;3.17;2.57;;;22.70;71.20;;;;;;20992922;28;20253;-69
2022/07/04 07:52:12;;;;;;;3.60;2.43;;;22.90;70.70;;;;;;20991722;28;20527;-67
2022/07/04 08:02:14;;;;;;;3.60;2.20;;;23.00;70.50;;;;;;20990865;28;20642;-69
2022/07/04 08:12:15;;;;;;;6.43;2.37;;;23.20;69.90;;;;;;20997325;28;20203;-73
2022/07/04 08:22:17;;;;;;;5.73;2.20;;;23.30;68.70;;;;;;21004528;28;21084;-67
2022/07/04 08:32:19;;;;;;;4.73;1.80;;;23.50;68.20;;;;;;20993095;28;20207;-70
2022/07/04 08:42:22;;;;;;;4.17;2.50;;;23.60;67.00;;;;;;20993015;28;20247;-71
2022/07/04 08:52:35;;;;;;;9.03;6.73;;;23.70;66.50;;;;;;20992165;28;20253;-70
2022/07/04 09:02:37;;;;;;;7.03;2.80;;;23.90;66.00;;;;;;20993208;28;20238;-72
2022/07/04 09:12:39;;;;;;;4.80;3.73;;;24.10;65.40;;;;;;21009140;28;20628;-70
2022/07/04 09:23:20;;;;;;;5.13;3.00;;;24.30;64.70;;;;;;21021415;28;20239;-71
2022/07/04 09:33:23;;;;;;;2.13;1.70;;;24.50;64.00;;;;;;21005641;28;20226;-69
2022/07/04 09:43:25;;;;;;;5.57;2.90;;;24.70;63.10;;;;;;21005001;28;20242;-69
2022/07/04 09:53:29;;;;;;;84.87;60.00;;;24.70;61.50;;;;;;21003315;28;20211;-67
2022/07/04 10:03:36;;;;;;;5.47;4.40;;;24.80;60.90;;;;;;21002891;28;20235;-69
2022/07/04 10:13:38;;;;;;;4.63;1.70;;;25.10;60.00;;;;;;21001583;28;20226;-66
2022/07/04 10:23:40;;;;;;;1.70;1.30;;;25.30;58.10;;;;;;21002264;28;20238;-70
2022/07/04 10:33:43;;;;;;;3.10;1.50;;;25.50;56.00;;;;;;20999463;28;20203;-71
2022/07/04 10:43:48;;;;;;;3.03;1.87;;;25.50;55.00;;;;;;20999618;28;20239;-69
2022/07/04 10:54:00;;;;;;;4.23;1.70;;;25.50;53.20;;;;;;20998350;28;20218;-68
2022/07/04 11:04:02;;;;;;;3.10;1.70;;;25.50;52.60;;;;;;20998590;28;20234;-69
2022/07/04 11:14:29;;;;;;;3.43;2.33;;;25.50;52.50;;;;;;20995084;28;20662;-72
2022/07/04 11:24:32;;;;;;;2.30;1.43;;;25.70;51.80;;;;;;20994983;28;20236;-71
2022/07/04 11:34:34;;;;;;;6.37;3.90;;;25.80;51.20;;;;;;20994499;28;20277;-68
2022/07/04 11:54:59;;;;;;;4.43;1.40;;;26.00;50.10;;;;;;20994704;28;20211;-68
2022/07/04 12:05:06;;;;;;;2.03;1.40;;;26.30;49.50;;;;;;20977280;28;20323;-69
2022/07/04 12:15:08;;;;;;;8.77;1.13;;;26.50;48.40;;;;;;20993952;28;20214;-69
2022/07/04 12:25:23;;;;;;;1.73;1.10;;;26.90;45.20;;;;;;20992124;28;20238;-69
2022/07/04 12:35:39;;;;;;;2.57;1.10;;;27.10;43.50;;;;;;20989374;28;20203;-70
2022/07/04 12:45:59;;;;;;;3.33;1.30;;;27.20;43.20;;;;;;20994790;28;20245;-70
2022/07/04 12:56:01;;;;;;;1.93;1.10;;;26.90;43.10;;;;;;21007894;28;20214;-70
2022/07/04 13:06:03;;;;;;;1.27;1.00;;;26.80;42.20;;;;;;21006921;28;20227;-70
2022/07/04 13:16:04;;;;;;;4.90;1.07;;;26.80;40.30;;;;;;21025054;28;20313;-69
2022/07/04 13:26:06;;;;;;;5.37;1.27;;;26.80;40.40;;;;;;21056922;28;20246;-69
2022/07/04 13:36:08;;;;;;;5.33;1.90;;;26.90;40.70;;;;;;20987573;28;20211;-69
2022/07/04 13:46:09;;;;;;;6.97;1.10;;;26.70;40.60;;;;;;21005092;28;20247;-69
2022/07/04 13:56:15;;;;;;;11.20;1.20;;;26.90;39.60;;;;;;21002895;28;20669;-69
2022/07/04 14:06:18;;;;;;;4.23;1.17;;;26.90;39.70;;;;;;21002738;28;20249;-70
2022/07/04 14:16:20;;;;;;;2.40;1.47;;;27.10;39.70;;;;;;20983493;28;20217;-71
2022/07/04 14:26:24;;;;;;;3.60;1.00;;;27.30;40.40;;;;;;20998973;28;20257;-68
2022/07/04 14:36:26;;;;;;;6.80;1.20;;;27.60;40.60;;;;;;20997828;28;20219;-69
2022/07/04 14:46:28;;;;;;;17.75;2.20;;;27.80;39.20;;;;;;21000174;28;20243;-70
2022/07/04 14:56:30;;;;;;;6.30;1.42;;;27.60;38.80;;;;;;20998625;28;20207;-69
2022/07/04 15:06:32;;;;;;;7.03;1.80;;;27.70;38.20;;;;;;20998115;28;20593;-69
2022/07/04 15:16:33;;;;;;;4.73;1.40;;;27.70;38.20;;;;;;21008797;28;20280;-66
2022/07/04 15:26:35;;;;;;;4.55;1.95;;;27.70;39.00;;;;;;21009290;28;20239;-67
2022/07/04 15:36:37;;;;;;;6.00;1.60;;;27.90;39.20;;;;;;20997290;28;20211;-70
2022/07/04 15:47:07;;;;;;;4.77;1.57;;;27.40;38.90;;;;;;21000346;28;20250;-70
2022/07/04 15:57:01;;;;;;;1.60;1.38;;;27.50;38.80;;;;;;20995550;28;20207;-68
2022/07/04 16:07:03;;;;;;;2.65;1.90;;;28.30;38.30;;;;;;20995020;28;20335;-67
2022/07/04 16:17:08;;;;;;;2.60;1.20;;;28.80;37.50;;;;;;20994742;28;20732;-71
2022/07/04 16:27:10;;;;;;;3.72;2.20;;;29.40;37.40;;;;;;21006758;28;20720;-70
2022/07/04 16:37:12;;;;;;;3.08;1.50;;;28.90;37.70;;;;;;21008001;28;20239;-71
2022/07/04 16:47:14;;;;;;;4.40;1.90;;;28.00;38.80;;;;;;21009847;28;20243;-67
2022/07/04 16:57:15;;;;;;;2.33;1.90;;;27.50;39.60;;;;;;21008749;28;20203;-70
2022/07/04 17:07:17;;;;;;;3.40;1.20;;;27.20;40.20;;;;;;21007622;28;20227;-70
2022/07/04 17:17:19;;;;;;;2.93;2.30;;;27.10;40.80;;;;;;21007286;28;20218;-74
2022/07/04 17:27:21;;;;;;;17.77;1.87;;;27.10;40.70;;;;;;21006361;28;20239;-69
2022/07/04 17:37:23;;;;;;;8.00;1.90;;;27.00;40.70;;;;;;21002119;28;20206;-68
2022/07/04 17:47:26;;;;;;;5.20;1.40;;;26.90;42.10;;;;;;21005297;28;20305;-72
2022/07/04 17:57:28;;;;;;;2.80;1.50;;;27.40;41.20;;;;;;21004071;28;20740;-69
2022/07/04 18:07:29;;;;;;;6.10;1.37;;;27.10;41.00;;;;;;21003397;28;20235;-69
2022/07/04 18:17:31;;;;;;;3.77;1.60;;;27.00;41.60;;;;;;21001667;28;20606;-70
2022/07/04 18:27:33;;;;;;;3.57;1.30;;;26.50;42.10;;;;;;21033887;28;20246;-69
2022/07/04 18:37:36;;;;;;;4.60;1.30;;;26.30;42.30;;;;;;21052876;28;20297;-71
2022/07/04 18:47:38;;;;;;;3.03;1.30;;;26.10;42.50;;;;;;21014399;28;20250;-68
2022/07/04 18:57:40;;;;;;;1.80;1.30;;;25.90;42.60;;;;;;20999180;28;20211;-71
2022/07/04 19:07:41;;;;;;;5.70;1.20;;;25.70;43.60;;;;;;20998151;28;20239;-69
2022/07/04 19:17:46;;;;;;;2.53;1.40;;;25.50;44.40;;;;;;20997669;28;20619;-70
2022/07/04 19:27:48;;;;;;;4.23;1.50;;;25.30;45.00;;;;;;20996709;28;20576;-66
2022/07/04 19:37:49;;;;;;;3.50;1.20;;;25.00;46.80;;;;;;21077979;28;20256;-67
2022/07/04 19:47:54;;;;;;;2.67;1.00;;;24.80;46.90;;;;;;21079559;28;20730;-67
2022/07/04 19:57:56;;;;;;;2.00;1.20;;;24.60;46.60;;;;;;21078039;28;20207;-67
2022/07/04 20:07:57;;;;;;;1.40;1.00;;;24.50;46.70;;;;;;21078486;28;20619;-71
2022/07/04 20:17:59;;;;;;;2.10;1.17;;;24.30;46.40;;;;;;21074866;28;20214;-72
2022/07/04 20:28:01;;;;;;;3.37;1.03;;;24.10;46.20;;;;;;21071990;28;20242;-71
2022/07/04 20:38:03;;;;;;;1.43;1.00;;;23.90;46.10;;;;;;21077434;28;20210;-73
2022/07/04 20:48:05;;;;;;;1.77;1.10;;;23.70;46.20;;;;;;21076532;28;20238;-75
2022/07/04 20:58:08;;;;;;;3.53;0.90;;;23.50;47.10;;;;;;21076148;28;20215;-76
2022/07/04 21:08:10;;;;;;;2.67;0.90;;;23.30;47.60;;;;;;21080707;28;20280;-70
2022/07/04 21:18:11;;;;;;;2.10;1.03;;;23.10;48.10;;;;;;21094762;28;20732;-72
2022/07/04 21:28:13;;;;;;;1.67;1.10;;;22.90;49.60;;;;;;21091336;28;20693;-72
2022/07/04 21:38:15;;;;;;;4.27;0.93;;;22.50;50.30;;;;;;21089569;28;20210;-73
2022/07/04 21:48:17;;;;;;;1.30;1.10;;;22.30;51.30;;;;;;21089200;28;20238;-74
2022/07/04 21:58:19;;;;;;;2.27;1.10;;;22.10;51.70;;;;;;21088050;28;20550;-76
2022/07/04 22:08:21;;;;;;;2.57;1.40;;;21.90;52.70;;;;;;21087194;28;20237;-75
2022/07/04 22:18:22;;;;;;;2.17;1.00;;;21.60;53.70;;;;;;21045110;28;20624;-76
2022/07/04 22:28:24;;;;;;;1.67;1.20;;;21.40;54.50;;;;;;20998782;28;20238;-75
2022/07/04 22:38:26;;;;;;;1.33;1.10;;;21.10;55.40;;;;;;21001062;28;20218;-76
2022/07/04 22:48:28;;;;;;;2.23;1.13;;;21.00;55.90;;;;;;21000561;28;20289;-76
2022/07/04 22:58:29;;;;;;;3.20;1.20;;;20.80;56.20;;;;;;20981885;28;20213;-70
2022/07/04 23:08:31;;;;;;;4.47;1.77;;;20.70;56.40;;;;;;20998544;28;20238;-71
2022/07/04 23:18:33;;;;;;;5.03;1.30;;;20.70;56.80;;;;;;20998859;28;20263;-77
2022/07/04 23:28:35;;;;;;;4.63;1.40;;;20.50;57.70;;;;;;20998118;28;20232;-73
2022/07/04 23:38:36;;;;;;;2.23;1.40;;;20.40;58.00;;;;;;21047260;28;20200;-75
2022/07/04 23:48:38;;;;;;;3.17;1.20;;;20.20;58.10;;;;;;20999300;28;20703;-70
2022/07/04 23:58:40;;;;;;;1.70;1.30;;;20.10;58.20;;;;;;20995765;28;20209;-76
